Terminal Aerodrome Forecast
Issued by NWS Northern Indiana

Home | Current Version | Previous Version | Text Only | Print | Product List | Glossary Off
Versions: 1 2 3 4 5 6 7 8 9 10 11 12 13 14

000
FTUS43 KIWX 280300 AAA
TAFFWA
TAF AMD
KFWA 280325Z 2803/2824 26010KT P6SM SCT025 BKN050
     FM280900 22006KT P6SM SCT050 BKN100
     FM281500 18012KT P6SM BKN050=

USA.gov is the U.S. government's official web portal to all federal, state and local government web resources and services.